PWSweather.com
Personal Weather Stations
Station Observations
KMAMEDFI2
Medfield, MA 02052

Medfield, MA 02052

Lat: 42.1900822, Lon: -71.3296889

Elevation: 138

Station Type: Rainwise WS MK-III

http://www.medfieldweather.com

High Low Average
Temperature 51.1°F10.6°C 18.0°F-7.8°C 37.2°F2.9°C
Dew Point 37.2°F2.9°C 13.9°F-10.1°C 23.4°F-4.8°C
Winds 10.4 mph 16.7 kmh Calm Calm 2.0 mph S3.2 kmh S
Wind Gusts 18.4 mph29.6 kmh -- 3.0 mph4.8 kmh
Humidity 96% 24% 62%
Pressure 30.45 in1031.2 mb 30.15 in1021.0 mb -
Precipitation 0.07 in1.8 mm - -
Hour Temp Dew Point Humidity Winds Wind Gusts Pressure Precip Precip Rate Daily Precip Total
12:00 AM 25.7°F-3.5°C 15.5°F-9.2°C 65% Calm Calm -- 30.34 in1027.4 mb - 0.00 in0.0 mm 0.00 in0.0 mm
12:10 AM 25.7°F-3.5°C 16.2°F-8.8°C 67% Calm Calm -- 30.34 in1027.4 mb - 0.00 in0.0 mm 0.00 in0.0 mm
12:20 AM 25.0°F-3.9°C 15.9°F-8.9°C 68% Calm Calm -- 30.34 in1027.4 mb - 0.00 in0.0 mm 0.00 in0.0 mm
12:30 AM 24.7°F-4.1°C 15.6°F-9.1°C 68% Calm Calm -- 30.35 in1027.8 mb - 0.00 in0.0 mm 0.00 in0.0 mm
12:40 AM 24.9°F-3.9°C 14.8°F-9.6°C 65% Calm Calm -- 30.34 in1027.4 mb - 0.00 in0.0 mm 0.00 in0.0 mm
12:50 AM 24.9°F-3.9°C 15.8°F-9.0°C 68% Calm Calm -- 30.35 in1027.8 mb - 0.00 in0.0 mm 0.00 in0.0 mm
01:00 AM 25.2°F-3.8°C 16.5°F-8.6°C 69% Calm Calm -- 30.34 in1027.4 mb - 0.00 in0.0 mm 0.00 in0.0 mm
01:10 AM 24.9°F-3.9°C 17.2°F-8.2°C 72% Calm Calm -- 30.34 in1027.4 mb - 0.00 in0.0 mm 0.00 in0.0 mm
01:20 AM 24.8°F-4.0°C 16.4°F-8.7°C 70% Calm Calm -- 30.35 in1027.8 mb - 0.00 in0.0 mm 0.00 in0.0 mm
01:30 AM 24.3°F-4.3°C 15.9°F-8.9°C 70% Calm Calm -- 30.35 in1027.8 mb - 0.00 in0.0 mm 0.00 in0.0 mm
01:40 AM 23.7°F-4.6°C 15.7°F-9.1°C 71% Calm Calm -- 30.35 in1027.8 mb - 0.00 in0.0 mm 0.00 in0.0 mm
01:50 AM 22.9°F-5.1°C 15.9°F-8.9°C 74% Calm Calm -- 30.35 in1027.8 mb - 0.00 in0.0 mm 0.00 in0.0 mm
02:00 AM 23.7°F-4.6°C 15.7°F-9.1°C 71% Calm Calm -- 30.35 in1027.8 mb - 0.00 in0.0 mm 0.00 in0.0 mm
02:10 AM 23.7°F-4.6°C 16.3°F-8.7°C 73% Calm Calm -- 30.35 in1027.8 mb - 0.00 in0.0 mm 0.00 in0.0 mm
02:20 AM 23.1°F-4.9°C 16.1°F-8.8°C 74% Calm Calm -- 30.34 in1027.4 mb - 0.00 in0.0 mm 0.00 in0.0 mm
02:30 AM 22.9°F-5.1°C 16.2°F-8.8°C 75% Calm Calm -- 30.35 in1027.8 mb - 0.00 in0.0 mm 0.00 in0.0 mm
02:40 AM 22.5°F-5.3°C 16.7°F-8.5°C 78% Calm Calm -- 30.35 in1027.8 mb - 0.00 in0.0 mm 0.00 in0.0 mm
02:50 AM 22.6°F-5.2°C 16.5°F-8.6°C 77% Calm Calm -- 30.35 in1027.8 mb - 0.00 in0.0 mm 0.00 in0.0 mm
03:00 AM 22.4°F-5.3°C 17.2°F-8.2°C 80% Calm Calm -- 30.34 in1027.4 mb - 0.00 in0.0 mm 0.00 in0.0 mm
03:10 AM 23.3°F-4.8°C 17.7°F-7.9°C 79% Calm Calm -- 30.34 in1027.4 mb - 0.00 in0.0 mm 0.00 in0.0 mm
03:20 AM 23.6°F-4.7°C 18.1°F-7.7°C 79% Calm Calm -- 30.35 in1027.8 mb - 0.00 in0.0 mm 0.00 in0.0 mm
03:30 AM 23.7°F-4.6°C 17.3°F-8.2°C 76% Calm Calm -- 30.34 in1027.4 mb - 0.00 in0.0 mm 0.00 in0.0 mm
03:40 AM 23.3°F-4.8°C 18.7°F-7.4°C 82% Calm Calm -- 30.34 in1027.4 mb - 0.00 in0.0 mm 0.00 in0.0 mm
03:50 AM 23.2°F-4.9°C 18.0°F-7.8°C 80% Calm Calm -- 30.35 in1027.8 mb - 0.00 in0.0 mm 0.00 in0.0 mm
04:00 AM 23.2°F-4.9°C 17.7°F-7.9°C 79% 1.2 mph SW1.9 kmh SW 1.2 mph1.9 kmh 30.34 in1027.4 mb - 0.00 in0.0 mm 0.00 in0.0 mm
04:10 AM 23.4°F-4.8°C 17.6°F-8.0°C 78% Calm Calm -- 30.34 in1027.4 mb - 0.00 in0.0 mm 0.00 in0.0 mm
04:20 AM 22.6°F-5.2°C 17.6°F-8.0°C 81% Calm Calm -- 30.34 in1027.4 mb - 0.00 in0.0 mm 0.00 in0.0 mm
04:30 AM 21.5°F-5.8°C 17.4°F-8.1°C 84% Calm Calm -- 30.34 in1027.4 mb - 0.00 in0.0 mm 0.00 in0.0 mm
04:40 AM 21.4°F-5.9°C 17.6°F-8.0°C 85% Calm Calm -- 30.34 in1027.4 mb - 0.00 in0.0 mm 0.00 in0.0 mm
04:50 AM 20.4°F-6.4°C 16.6°F-8.6°C 85% Calm Calm -- 30.35 in1027.8 mb - 0.00 in0.0 mm 0.00 in0.0 mm
05:00 AM 19.9°F-6.7°C 17.0°F-8.3°C 88% Calm Calm -- 30.35 in1027.8 mb - 0.00 in0.0 mm 0.00 in0.0 mm
05:10 AM 19.3°F-7.1°C 17.1°F-8.3°C 91% Calm Calm -- 30.36 in1028.1 mb - 0.00 in0.0 mm 0.00 in0.0 mm
05:20 AM 18.8°F-7.3°C 16.9°F-8.4°C 92% Calm Calm -- 30.36 in1028.1 mb - 0.00 in0.0 mm 0.00 in0.0 mm
05:30 AM 19.1°F-7.2°C 17.4°F-8.1°C 93% Calm Calm -- 30.36 in1028.1 mb - 0.00 in0.0 mm 0.00 in0.0 mm
05:40 AM 19.8°F-6.8°C 18.1°F-7.7°C 93% Calm Calm -- 30.36 in1028.1 mb - 0.00 in0.0 mm 0.00 in0.0 mm
05:50 AM 19.4°F-7.0°C 17.7°F-7.9°C 93% Calm Calm -- 30.36 in1028.1 mb - 0.00 in0.0 mm 0.00 in0.0 mm
06:00 AM 19.4°F-7.0°C 17.7°F-7.9°C 93% Calm Calm -- 30.37 in1028.4 mb - 0.00 in0.0 mm 0.00 in0.0 mm
06:10 AM 18.7°F-7.4°C 17.0°F-8.3°C 93% Calm Calm -- 30.37 in1028.4 mb - 0.00 in0.0 mm 0.00 in0.0 mm
06:20 AM 18.4°F-7.6°C 16.8°F-8.4°C 93% Calm Calm -- 30.37 in1028.4 mb - 0.00 in0.0 mm 0.00 in0.0 mm
06:30 AM 18.0°F-7.8°C 16.3°F-8.7°C 93% Calm Calm -- 30.37 in1028.4 mb - 0.00 in0.0 mm 0.00 in0.0 mm
06:40 AM 18.7°F-7.4°C 17.0°F-8.3°C 93% Calm Calm -- 30.37 in1028.4 mb - 0.00 in0.0 mm 0.00 in0.0 mm
06:50 AM 18.9°F-7.3°C 17.2°F-8.2°C 93% Calm Calm -- 30.38 in1028.8 mb - 0.00 in0.0 mm 0.00 in0.0 mm
07:00 AM 19.4°F-7.0°C 17.7°F-7.9°C 93% Calm Calm -- 30.39 in1029.1 mb - 0.00 in0.0 mm 0.00 in0.0 mm
07:10 AM 20.4°F-6.4°C 18.7°F-7.4°C 93% Calm Calm -- 30.40 in1029.5 mb - 0.00 in0.0 mm 0.00 in0.0 mm
07:20 AM 20.9°F-6.2°C 19.2°F-7.1°C 93% Calm Calm -- 30.40 in1029.5 mb - 0.00 in0.0 mm 0.00 in0.0 mm
07:30 AM 21.7°F-5.7°C 20.0°F-6.7°C 93% Calm Calm -- 30.39 in1029.1 mb - 0.00 in0.0 mm 0.00 in0.0 mm
07:40 AM 21.8°F-5.7°C 20.1°F-6.6°C 93% Calm Calm -- 30.40 in1029.5 mb - 0.00 in0.0 mm 0.00 in0.0 mm
07:50 AM 22.6°F-5.2°C 20.9°F-6.2°C 93% Calm Calm -- 30.40 in1029.5 mb - 0.00 in0.0 mm 0.00 in0.0 mm
08:00 AM 24.9°F-3.9°C 22.6°F-5.2°C 91% Calm Calm -- 30.41 in1029.8 mb - 0.00 in0.0 mm 0.00 in0.0 mm
08:10 AM 27.2°F-2.7°C 23.2°F-4.9°C 85% Calm Calm -- 30.40 in1029.5 mb - 0.00 in0.0 mm 0.00 in0.0 mm
08:20 AM 29.1°F-1.6°C 23.7°F-4.6°C 80% Calm Calm -- 30.41 in1029.8 mb - 0.00 in0.0 mm 0.00 in0.0 mm
08:30 AM 31.4°F-0.3°C 23.7°F-4.6°C 73% Calm Calm -- 30.41 in1029.8 mb - 0.00 in0.0 mm 0.00 in0.0 mm
08:40 AM 33.1°F0.6°C 23.7°F-4.6°C 68% Calm Calm -- 30.42 in1030.1 mb - 0.00 in0.0 mm 0.00 in0.0 mm
08:50 AM 34.9°F1.6°C 22.8°F-5.1°C 61% 2.3 mph S3.7 kmh S 2.3 mph3.7 kmh 30.43 in1030.5 mb - 0.00 in0.0 mm 0.00 in0.0 mm
09:00 AM 37.6°F3.1°C 22.4°F-5.3°C 54% 1.2 mph SE1.9 kmh SE 2.3 mph3.7 kmh 30.43 in1030.5 mb - 0.00 in0.0 mm 0.00 in0.0 mm
09:10 AM 39.1°F3.9°C 20.5°F-6.4°C 47% 3.5 mph SE5.6 kmh SE 2.3 mph3.7 kmh 30.44 in1030.8 mb - 0.00 in0.0 mm 0.00 in0.0 mm
09:20 AM 40.3°F4.6°C 20.1°F-6.6°C 44% 1.2 mph S1.9 kmh S -- 30.45 in1031.2 mb - 0.00 in0.0 mm 0.00 in0.0 mm
09:30 AM 40.8°F4.9°C 18.3°F-7.6°C 40% 3.5 mph SE5.6 kmh SE 3.5 mph5.6 kmh 30.45 in1031.2 mb - 0.00 in0.0 mm 0.00 in0.0 mm
09:40 AM 41.5°F5.3°C 17.7°F-7.9°C 38% 3.5 mph SSW5.6 kmh SSW 5.8 mph9.3 kmh 30.45 in1031.2 mb - 0.00 in0.0 mm 0.00 in0.0 mm
09:50 AM 41.8°F5.4°C 17.4°F-8.1°C 37% 4.6 mph SSE7.4 kmh SSE 3.5 mph5.6 kmh 30.45 in1031.2 mb - 0.00 in0.0 mm 0.00 in0.0 mm
10:00 AM 42.3°F5.7°C 19.1°F-7.2°C 39% 2.3 mph SE3.7 kmh SE 2.3 mph3.7 kmh 30.45 in1031.2 mb - 0.00 in0.0 mm 0.00 in0.0 mm
10:10 AM 43.1°F6.2°C 19.8°F-6.8°C 39% 1.2 mph NE1.9 kmh NE 2.3 mph3.7 kmh 30.45 in1031.2 mb - 0.00 in0.0 mm 0.00 in0.0 mm
10:20 AM 43.5°F6.4°C 18.9°F-7.3°C 37% 4.6 mph S7.4 kmh S 5.8 mph9.3 kmh 30.45 in1031.2 mb - 0.00 in0.0 mm 0.00 in0.0 mm
10:30 AM 43.8°F6.6°C 17.8°F-7.9°C 35% 3.5 mph S5.6 kmh S 5.8 mph9.3 kmh 30.45 in1031.2 mb - 0.00 in0.0 mm 0.00 in0.0 mm
10:40 AM 43.7°F6.5°C 19.1°F-7.2°C 37% 1.2 mph SE1.9 kmh SE 2.3 mph3.7 kmh 30.45 in1031.2 mb - 0.00 in0.0 mm 0.00 in0.0 mm
10:50 AM 44.5°F6.9°C 18.5°F-7.5°C 35% 3.5 mph SE5.6 kmh SE 2.3 mph3.7 kmh 30.45 in1031.2 mb - 0.00 in0.0 mm 0.00 in0.0 mm
11:00 AM 45.3°F7.4°C 21.8°F-5.7°C 39% 3.5 mph SE5.6 kmh SE 10.4 mph16.7 kmh 30.44 in1030.8 mb - 0.00 in0.0 mm 0.00 in0.0 mm
11:10 AM 45.4°F7.4°C 19.3°F-7.1°C 35% 3.5 mph SW5.6 kmh SW 6.9 mph11.1 kmh 30.44 in1030.8 mb - 0.00 in0.0 mm 0.00 in0.0 mm
11:20 AM 46.6°F8.1°C 20.4°F-6.4°C 35% 2.3 mph SE3.7 kmh SE 5.8 mph9.3 kmh 30.44 in1030.8 mb - 0.00 in0.0 mm 0.00 in0.0 mm
11:30 AM 47.3°F8.5°C 18.9°F-7.3°C 32% 4.6 mph SE7.4 kmh SE 8.1 mph13.0 kmh 30.44 in1030.8 mb - 0.00 in0.0 mm 0.00 in0.0 mm
11:40 AM 47.1°F8.4°C 20.1°F-6.6°C 34% 2.3 mph SE3.7 kmh SE 2.3 mph3.7 kmh 30.44 in1030.8 mb - 0.00 in0.0 mm 0.00 in0.0 mm
11:50 AM 47.7°F8.7°C 21.4°F-5.9°C 35% 3.5 mph SW5.6 kmh SW 11.5 mph18.5 kmh 30.44 in1030.8 mb - 0.00 in0.0 mm 0.00 in0.0 mm
12:00 PM 48.1°F8.9°C 20.3°F-6.5°C 33% 4.6 mph SW7.4 kmh SW 9.2 mph14.8 kmh 30.43 in1030.5 mb - 0.00 in0.0 mm 0.00 in0.0 mm
12:10 PM 47.7°F8.7°C 20.7°F-6.3°C 34% 4.6 mph S7.4 kmh S 5.8 mph9.3 kmh 30.43 in1030.5 mb - 0.00 in0.0 mm 0.00 in0.0 mm
12:20 PM 48.1°F8.9°C 21.0°F-6.1°C 34% 6.9 mph SE11.1 kmh SE 6.9 mph11.1 kmh 30.43 in1030.5 mb - 0.00 in0.0 mm 0.00 in0.0 mm
12:30 PM 48.5°F9.2°C 23.3°F-4.8°C 37% 4.6 mph SW7.4 kmh SW 15.0 mph24.1 kmh 30.43 in1030.5 mb - 0.00 in0.0 mm 0.00 in0.0 mm
12:40 PM 48.9°F9.4°C 22.4°F-5.3°C 35% 4.6 mph WSW7.4 kmh WSW 15.0 mph24.1 kmh 30.43 in1030.5 mb - 0.00 in0.0 mm 0.00 in0.0 mm
12:50 PM 49.0°F9.4°C 21.8°F-5.7°C 34% 6.9 mph S11.1 kmh S 6.9 mph11.1 kmh 30.43 in1030.5 mb - 0.00 in0.0 mm 0.00 in0.0 mm
01:00 PM 49.2°F9.6°C 20.5°F-6.4°C 32% 10.4 mph WSW16.7 kmh WSW 11.5 mph18.5 kmh 30.43 in1030.5 mb - 0.00 in0.0 mm 0.00 in0.0 mm
01:10 PM 49.2°F9.6°C 21.3°F-5.9°C 33% 6.9 mph WSW11.1 kmh WSW 18.4 mph29.6 kmh 30.43 in1030.5 mb - 0.00 in0.0 mm 0.00 in0.0 mm
01:20 PM 49.3°F9.6°C 23.4°F-4.8°C 36% 5.8 mph SSW9.3 kmh SSW 8.1 mph13.0 kmh 30.42 in1030.1 mb - 0.00 in0.0 mm 0.00 in0.0 mm
01:30 PM 49.3°F9.6°C 22.7°F-5.2°C 35% 4.6 mph SE7.4 kmh SE 5.8 mph9.3 kmh 30.41 in1029.8 mb - 0.00 in0.0 mm 0.00 in0.0 mm
01:40 PM 49.5°F9.7°C 22.9°F-5.1°C 35% 4.6 mph SE7.4 kmh SE 9.2 mph14.8 kmh 30.41 in1029.8 mb - 0.00 in0.0 mm 0.00 in0.0 mm
01:50 PM 49.8°F9.9°C 23.2°F-4.9°C 35% 4.6 mph SW7.4 kmh SW 5.8 mph9.3 kmh 30.40 in1029.5 mb - 0.00 in0.0 mm 0.00 in0.0 mm
02:00 PM 50.6°F10.3°C 21.1°F-6.1°C 31% 3.5 mph SSE5.6 kmh SSE 5.8 mph9.3 kmh 30.41 in1029.8 mb - 0.00 in0.0 mm 0.00 in0.0 mm
02:10 PM 50.6°F10.3°C 21.8°F-5.7°C 32% 3.5 mph SSE5.6 kmh SSE 6.9 mph11.1 kmh 30.40 in1029.5 mb - 0.00 in0.0 mm 0.00 in0.0 mm
02:20 PM 51.1°F10.6°C 22.2°F-5.4°C 32% 5.8 mph SE9.3 kmh SE 6.9 mph11.1 kmh 30.38 in1028.8 mb - 0.00 in0.0 mm 0.00 in0.0 mm
02:30 PM 50.6°F10.3°C 19.5°F-6.9°C 29% 2.3 mph SE3.7 kmh SE 9.2 mph14.8 kmh 30.39 in1029.1 mb - 0.00 in0.0 mm 0.00 in0.0 mm
02:40 PM 50.2°F10.1°C 23.6°F-4.7°C 35% 3.5 mph ESE5.6 kmh ESE 5.8 mph9.3 kmh 30.38 in1028.8 mb - 0.00 in0.0 mm 0.00 in0.0 mm
02:50 PM 50.4°F10.2°C 24.4°F-4.2°C 36% 6.9 mph ESE11.1 kmh ESE 9.2 mph14.8 kmh 30.39 in1029.1 mb - 0.00 in0.0 mm 0.00 in0.0 mm
03:00 PM 50.3°F10.2°C 23.0°F-5.0°C 34% 3.5 mph SE5.6 kmh SE 6.9 mph11.1 kmh 30.38 in1028.8 mb - 0.00 in0.0 mm 0.00 in0.0 mm
03:10 PM 49.7°F9.8°C 22.4°F-5.3°C 34% 4.6 mph SW7.4 kmh SW 6.9 mph11.1 kmh 30.39 in1029.1 mb - 0.00 in0.0 mm 0.00 in0.0 mm
03:20 PM 50.2°F10.1°C 23.5°F-4.7°C 35% 2.3 mph S3.7 kmh S 6.9 mph11.1 kmh 30.38 in1028.8 mb - 0.00 in0.0 mm 0.00 in0.0 mm
03:30 PM 49.9°F9.9°C 18.0°F-7.8°C 28% 5.8 mph S9.3 kmh S 9.2 mph14.8 kmh 30.37 in1028.4 mb - 0.00 in0.0 mm 0.00 in0.0 mm
03:40 PM 50.4°F10.2°C 20.8°F-6.2°C 31% 3.5 mph SE5.6 kmh SE 3.5 mph5.6 kmh 30.36 in1028.1 mb - 0.00 in0.0 mm 0.00 in0.0 mm
03:50 PM 49.7°F9.8°C 17.9°F-7.8°C 28% 4.6 mph SW7.4 kmh SW 8.1 mph13.0 kmh 30.35 in1027.8 mb - 0.00 in0.0 mm 0.00 in0.0 mm
04:00 PM 49.2°F9.6°C 13.9°F-10.1°C 24% 5.8 mph S9.3 kmh S 9.2 mph14.8 kmh 30.35 in1027.8 mb - 0.00 in0.0 mm 0.00 in0.0 mm
04:10 PM 48.8°F9.3°C 17.1°F-8.3°C 28% 4.6 mph SSE7.4 kmh SSE 5.8 mph9.3 kmh 30.36 in1028.1 mb - 0.00 in0.0 mm 0.00 in0.0 mm
04:20 PM 49.5°F9.7°C 15.9°F-8.9°C 26% 4.6 mph S7.4 kmh S 9.2 mph14.8 kmh 30.36 in1028.1 mb - 0.00 in0.0 mm 0.00 in0.0 mm
04:30 PM 49.1°F9.5°C 19.0°F-7.2°C 30% 3.5 mph SSW5.6 kmh SSW 5.8 mph9.3 kmh 30.35 in1027.8 mb - 0.00 in0.0 mm 0.00 in0.0 mm
04:40 PM 48.6°F9.2°C 17.7°F-7.9°C 29% 3.5 mph S5.6 kmh S 8.1 mph13.0 kmh 30.36 in1028.1 mb - 0.00 in0.0 mm 0.00 in0.0 mm
04:50 PM 47.9°F8.8°C 17.1°F-8.3°C 29% 3.5 mph ENE5.6 kmh ENE 5.8 mph9.3 kmh 30.36 in1028.1 mb - 0.00 in0.0 mm 0.00 in0.0 mm
05:00 PM 47.5°F8.6°C 19.8°F-6.8°C 33% 4.6 mph E7.4 kmh E 8.1 mph13.0 kmh 30.36 in1028.1 mb - 0.00 in0.0 mm 0.00 in0.0 mm
05:10 PM 47.1°F8.4°C 22.7°F-5.2°C 38% 4.6 mph S7.4 kmh S 6.9 mph11.1 kmh 30.35 in1027.8 mb - 0.00 in0.0 mm 0.00 in0.0 mm
05:20 PM 46.7°F8.2°C 25.3°F-3.7°C 43% 4.6 mph SE7.4 kmh SE 5.8 mph9.3 kmh 30.35 in1027.8 mb - 0.00 in0.0 mm 0.00 in0.0 mm
05:30 PM 46.4°F8.0°C 27.7°F-2.4°C 48% 3.5 mph SSE5.6 kmh SSE 3.5 mph5.6 kmh 30.34 in1027.4 mb - 0.00 in0.0 mm 0.00 in0.0 mm
05:40 PM 45.8°F7.7°C 31.4°F-0.3°C 57% 2.3 mph E3.7 kmh E 9.2 mph14.8 kmh 30.34 in1027.4 mb - 0.00 in0.0 mm 0.00 in0.0 mm
05:50 PM 45.2°F7.3°C 32.1°F0.1°C 60% 5.8 mph SE9.3 kmh SE 8.1 mph13.0 kmh 30.33 in1027.1 mb - 0.00 in0.0 mm 0.00 in0.0 mm
06:00 PM 44.7°F7.1°C 31.2°F-0.4°C 59% 3.5 mph SSE5.6 kmh SSE 2.3 mph3.7 kmh 30.33 in1027.1 mb - 0.00 in0.0 mm 0.00 in0.0 mm
06:10 PM 44.4°F6.9°C 31.8°F-0.1°C 61% 3.5 mph SE5.6 kmh SE 6.9 mph11.1 kmh 30.32 in1026.8 mb - 0.00 in0.0 mm 0.00 in0.0 mm
06:20 PM 43.9°F6.6°C 31.7°F-0.2°C 62% 2.3 mph S3.7 kmh S 2.3 mph3.7 kmh 30.31 in1026.4 mb - 0.00 in0.0 mm 0.00 in0.0 mm
06:30 PM 43.6°F6.4°C 31.4°F-0.3°C 62% 2.3 mph SE3.7 kmh SE 5.8 mph9.3 kmh 30.31 in1026.4 mb - 0.00 in0.0 mm 0.00 in0.0 mm
06:40 PM 43.3°F6.3°C 31.5°F-0.3°C 63% 1.2 mph ESE1.9 kmh ESE 2.3 mph3.7 kmh 30.32 in1026.8 mb - 0.00 in0.0 mm 0.00 in0.0 mm
06:50 PM 42.9°F6.1°C 31.2°F-0.4°C 63% 2.3 mph SE3.7 kmh SE 2.3 mph3.7 kmh 30.31 in1026.4 mb - 0.00 in0.0 mm 0.00 in0.0 mm
07:00 PM 42.6°F5.9°C 31.3°F-0.4°C 64% 1.2 mph SE1.9 kmh SE 1.2 mph1.9 kmh 30.30 in1026.1 mb - 0.00 in0.0 mm 0.00 in0.0 mm
07:10 PM 42.3°F5.7°C 30.6°F-0.8°C 63% 1.2 mph SSE1.9 kmh SSE 2.3 mph3.7 kmh 30.30 in1026.1 mb - 0.00 in0.0 mm 0.00 in0.0 mm
07:20 PM 42.2°F5.7°C 30.9°F-0.6°C 64% 2.3 mph ESE3.7 kmh ESE 2.3 mph3.7 kmh 30.29 in1025.7 mb - 0.00 in0.0 mm 0.00 in0.0 mm
07:30 PM 42.2°F5.7°C 30.8°F-0.7°C 64% 2.3 mph ESE3.7 kmh ESE 2.3 mph3.7 kmh 30.28 in1025.4 mb - 0.00 in0.0 mm 0.00 in0.0 mm
07:40 PM 41.8°F5.4°C 30.5°F-0.8°C 64% 2.3 mph ESE3.7 kmh ESE 2.3 mph3.7 kmh 30.27 in1025.1 mb - 0.00 in0.0 mm 0.00 in0.0 mm
07:50 PM 41.8°F5.4°C 30.5°F-0.8°C 64% 2.3 mph SE3.7 kmh SE 2.3 mph3.7 kmh 30.27 in1025.1 mb - 0.00 in0.0 mm 0.00 in0.0 mm
08:00 PM 41.7°F5.4°C 30.0°F-1.1°C 63% 2.3 mph SE3.7 kmh SE 2.3 mph3.7 kmh 30.27 in1025.1 mb - 0.00 in0.0 mm 0.00 in0.0 mm
08:10 PM 41.5°F5.3°C 30.2°F-1.0°C 64% 2.3 mph SE3.7 kmh SE 5.8 mph9.3 kmh 30.27 in1025.1 mb - 0.00 in0.0 mm 0.00 in0.0 mm
08:20 PM 41.5°F5.3°C 30.6°F-0.8°C 65% 2.3 mph SE3.7 kmh SE 2.3 mph3.7 kmh 30.27 in1025.1 mb - 0.00 in0.0 mm 0.00 in0.0 mm
08:30 PM 41.3°F5.2°C 30.4°F-0.9°C 65% 2.3 mph E3.7 kmh E 2.3 mph3.7 kmh 30.27 in1025.1 mb - 0.00 in0.0 mm 0.00 in0.0 mm
08:40 PM 41.4°F5.2°C 30.5°F-0.8°C 65% 2.3 mph E3.7 kmh E 2.3 mph3.7 kmh 30.27 in1025.1 mb - 0.00 in0.0 mm 0.00 in0.0 mm
08:50 PM 41.3°F5.2°C 30.8°F-0.7°C 66% 3.5 mph ESE5.6 kmh ESE 5.8 mph9.3 kmh 30.27 in1025.1 mb - 0.00 in0.0 mm 0.00 in0.0 mm
09:00 PM 41.1°F5.1°C 31.3°F-0.4°C 68% 2.3 mph SE3.7 kmh SE 3.5 mph5.6 kmh 30.27 in1025.1 mb - 0.00 in0.0 mm 0.00 in0.0 mm
09:10 PM 40.9°F4.9°C 31.1°F-0.5°C 68% 2.3 mph ESE3.7 kmh ESE 2.3 mph3.7 kmh 30.26 in1024.7 mb - 0.00 in0.0 mm 0.00 in0.0 mm
09:20 PM 40.9°F4.9°C 31.8°F-0.1°C 70% 3.5 mph ESE5.6 kmh ESE 2.3 mph3.7 kmh 30.25 in1024.4 mb - 0.00 in0.0 mm 0.00 in0.0 mm
09:30 PM 40.9°F4.9°C 31.8°F-0.1°C 70% 3.5 mph ESE5.6 kmh ESE 2.3 mph3.7 kmh 30.25 in1024.4 mb - 0.00 in0.0 mm 0.00 in0.0 mm
09:40 PM 40.9°F4.9°C 32.2°F0.1°C 71% 2.3 mph SE3.7 kmh SE 2.3 mph3.7 kmh 30.25 in1024.4 mb - 0.00 in0.0 mm 0.00 in0.0 mm
09:50 PM 40.8°F4.9°C 32.4°F0.2°C 72% 2.3 mph E3.7 kmh E 2.3 mph3.7 kmh 30.24 in1024.0 mb - 0.00 in0.0 mm 0.00 in0.0 mm
10:00 PM 40.7°F4.8°C 32.7°F0.4°C 73% Calm Calm -- 30.23 in1023.7 mb - 0.00 in0.0 mm 0.00 in0.0 mm
10:10 PM 40.4°F4.7°C 32.7°F0.4°C 74% 2.3 mph E3.7 kmh E 2.3 mph3.7 kmh 30.23 in1023.7 mb - 0.00 in0.0 mm 0.00 in0.0 mm
10:20 PM 40.4°F4.7°C 32.8°F0.4°C 74% 3.5 mph E5.6 kmh E 2.3 mph3.7 kmh 30.21 in1023.0 mb - 0.00 in0.0 mm 0.00 in0.0 mm
10:30 PM 40.6°F4.8°C 32.9°F0.5°C 74% 2.3 mph SE3.7 kmh SE 2.3 mph3.7 kmh 30.20 in1022.7 mb - 0.00 in0.0 mm 0.00 in0.0 mm
10:40 PM 40.5°F4.7°C 33.2°F0.7°C 75% 3.5 mph E5.6 kmh E 5.8 mph9.3 kmh 30.18 in1022.0 mb - 0.00 in0.0 mm 0.00 in0.0 mm
10:50 PM 40.5°F4.7°C 33.5°F0.8°C 76% Calm Calm 1.2 mph1.9 kmh 30.19 in1022.4 mb - 0.00 in0.0 mm 0.00 in0.0 mm
11:00 PM 40.5°F4.7°C 33.5°F0.8°C 76% Calm Calm -- 30.19 in1022.4 mb - 0.00 in0.0 mm 0.00 in0.0 mm
11:10 PM 40.2°F4.6°C 33.3°F0.7°C 76% Calm Calm -- 30.19 in1022.4 mb - 0.00 in0.0 mm 0.00 in0.0 mm
11:20 PM 39.9°F4.4°C 33.2°F0.7°C 77% Calm Calm -- 30.19 in1022.4 mb - 0.00 in0.0 mm 0.00 in0.0 mm
11:30 PM 39.9°F4.4°C 33.6°F0.9°C 78% Calm Calm -- 30.19 in1022.4 mb - 0.00 in0.0 mm 0.00 in0.0 mm
11:40 PM 39.9°F4.4°C 33.6°F0.9°C 78% Calm Calm -- 30.19 in1022.4 mb - 0.00 in0.0 mm 0.00 in0.0 mm
11:50 PM 40.1°F4.5°C 34.1°F1.2°C 79% Calm Calm -- 30.18 in1022.0 mb - 0.00 in0.0 mm 0.00 in0.0 mm